Aérodrome :
LOGIN :

S'inscrire | Disclaimer

   EN    FR    IT 

 










Légende :    VFR   VFR Marginal   IFR   IFR Intensif   IFR Très Intensif
Visi : 
Plafond : 
>= 8 km
>= 3000ft
5 à 8 km
1000 à 3000 ft
1500m à 5 km
500 à 1000 ft
800 à 1500m
200 à 500 ft
< 800m
< 200 ft
Symboles :   Orages  Brouillard  Fortes neiges  Fortes précipitations  Vent > 20 kt
SIGMETs :   Divers  Orages  Givrage  Turbulence  Onde Orograph.  Cendres Volcan.






- Altitude de l'aérodrome : 13 ft
- Code IATA : SNR


LFRZ - St-Nazaire

DERNIER METAR :
  • 060500Z AUTO 18008KT 2400 BR ////// 06/06 Q1020

METARs EXPIRÉS :
  • 060430Z AUTO 17007KT 4200 BR ////// 05/05 Q1020
  • 060400Z AUTO 16006KT 4700 BR ////// 04/04 Q1021
  • 060330Z AUTO 17005KT 4400 BR ////// 04/04 Q1021
  • 060300Z AUTO 17006KT 3700 BR ////// 03/03 Q1021
  • 060230Z AUTO 16006KT 1300 1100 R25/1700N BR ////// 03/03 Q1021

TAF TAF LFRZ
Valide du 05 à 18h jusqu'au 06 à 18h UTC


051700Z 0518/0618 VRB03KT 3500 BR OVC004
TEMPO 0518/0606 0600 FG VV///
BECMG 0606/0608 18010KT 8000 -RA
TEMPO 0606/0618 BKN011



MET'MAP, la Météo Aéronautique d'un coup d'oeil ! - Copyright ORBIFLY Décembre 2007 - Disclaimer

ORBIFLY MET'MAP TEAM :

Programmation & Développement : Alexandra Zaïnal
Sur une idée originale de : Baudouin d'Aumeries
Assistance à la programmation : Marc-Olivier Méhu
Soutien technique & logistique : Manuel Goepfert

Contact : metmap@orbifly.com




SOURCES & CREDITS :

   NOAA